Time;durP1;ratioP1;P1;durP2;ratioP2;P2;SDS_P1;SDS_P2;PMS_P1;PMS_P2;Temp;Humidity;BMP_temperature;BMP_pressure;BME280_temperature;BME280_humidity;BME280_pressure;Samples;Min_cycle;Max_cycle;Signal;HPM_P1;HPM_P2
2022/03/05 00:01:22;;;;;;;8.98;4.07;;;-0.30;99.90;;;;;;5030629;28;20086;-94
2022/03/05 00:03:48;;;;;;;9.18;4.88;;;-0.30;99.90;;;;;;5030899;28;20076;-93
2022/03/05 00:06:13;;;;;;;8.70;4.72;;;-0.40;99.90;;;;;;5013461;28;20415;-91
2022/03/05 00:08:39;;;;;;;7.93;4.53;;;-0.30;99.90;;;;;;5030668;28;20072;-92
2022/03/05 00:11:05;;;;;;;8.77;5.00;;;0.90;99.90;;;;;;5031788;28;20055;-93
2022/03/05 00:13:31;;;;;;;8.50;4.88;;;0.90;99.90;;;;;;5017656;28;20047;-93
2022/03/05 00:15:57;;;;;;;9.20;4.78;;;-0.40;99.90;;;;;;5050039;28;20536;-93
2022/03/05 00:18:23;;;;;;;9.00;4.85;;;1.00;99.90;;;;;;5033612;28;20400;-92
2022/03/05 00:20:51;;;;;;;11.48;4.82;;;0.60;99.90;;;;;;5033873;28;20041;-92
2022/03/05 00:23:17;;;;;;;8.93;4.60;;;-0.30;99.90;;;;;;5034342;28;20105;-92
2022/03/05 00:25:43;;;;;;;8.63;4.68;;;1.10;99.90;;;;;;5050249;28;20044;-92
2022/03/05 00:28:10;;;;;;;8.95;4.63;;;-0.30;99.90;;;;;;5049622;28;20496;-92
2022/03/05 00:30:35;;;;;;;9.30;4.65;;;1.10;99.90;;;;;;5034270;28;20090;-92
2022/03/05 00:33:02;;;;;;;11.48;4.35;;;-0.30;99.90;;;;;;5016293;28;20044;-92
2022/03/05 00:35:29;;;;;;;10.70;4.63;;;0.70;99.90;;;;;;5017588;28;20037;-92
2022/03/05 00:37:56;;;;;;;10.07;4.45;;;-0.40;99.90;;;;;;5050236;28;20102;-92
2022/03/05 00:40:22;;;;;;;7.15;4.40;;;-0.40;99.90;;;;;;5033704;28;20052;-92
2022/03/05 00:42:48;;;;;;;8.38;4.85;;;-0.40;99.90;;;;;;5050075;28;20082;-93
2022/03/05 00:45:14;;;;;;;10.18;5.70;;;-0.30;99.90;;;;;;5033239;28;20048;-93
2022/03/05 00:47:40;;;;;;;7.32;4.45;;;1.20;99.90;;;;;;5033904;28;20040;-92
2022/03/05 00:50:07;;;;;;;8.40;4.63;;;-0.30;99.90;;;;;;5033044;28;20090;-93
2022/03/05 00:52:35;;;;;;;6.93;4.20;;;-0.30;99.90;;;;;;5033183;28;20055;-93
2022/03/05 00:55:01;;;;;;;8.60;4.97;;;0.90;99.90;;;;;;5033038;28;20079;-93
2022/03/05 00:57:26;;;;;;;10.57;4.82;;;0.40;99.90;;;;;;5033587;28;20037;-94
2022/03/05 00:59:52;;;;;;;7.32;4.57;;;-0.40;99.90;;;;;;5033968;28;20099;-92
2022/03/05 01:02:18;;;;;;;7.57;4.03;;;-0.50;99.90;;;;;;5033821;28;20120;-94
2022/03/05 01:04:44;;;;;;;7.88;4.60;;;-0.60;99.90;;;;;;5017473;28;20102;-94
2022/03/05 01:07:10;;;;;;;8.77;5.15;;;-0.60;99.90;;;;;;5017074;28;20045;-93
2022/03/05 01:09:37;;;;;;;8.52;4.95;;;-0.60;99.90;;;;;;5033742;28;20138;-94
2022/03/05 01:12:04;;;;;;;8.57;5.03;;;-0.60;99.90;;;;;;5033128;28;20045;-93
2022/03/05 01:14:29;;;;;;;11.27;5.47;;;-0.60;99.90;;;;;;5034347;28;20070;-93
2022/03/05 01:16:55;;;;;;;9.73;4.97;;;-0.80;99.90;;;;;;5034149;28;20048;-93
2022/03/05 01:19:21;;;;;;;10.27;5.43;;;-0.70;99.90;;;;;;5017920;28;20033;-93
2022/03/05 01:21:46;;;;;;;9.70;5.30;;;-0.70;99.90;;;;;;5018251;28;20045;-93
2022/03/05 01:24:12;;;;;;;12.43;5.40;;;-0.70;99.90;;;;;;5017722;28;20044;-91
2022/03/05 01:26:38;;;;;;;9.40;4.82;;;-0.70;99.90;;;;;;5034134;28;20044;-93
2022/03/05 01:29:03;;;;;;;10.63;5.35;;;-0.80;99.90;;;;;;5034632;28;20048;-94
2022/03/05 01:31:30;;;;;;;10.23;4.93;;;-0.80;99.90;;;;;;5035040;28;20561;-93
2022/03/05 01:33:55;;;;;;;7.55;4.75;;;-0.80;99.90;;;;;;5020065;28;20676;-92
2022/03/05 01:36:21;;;;;;;10.27;5.03;;;-0.80;99.90;;;;;;5041202;28;20167;-92
2022/03/05 01:38:47;;;;;;;11.30;5.00;;;-0.80;99.90;;;;;;5041285;28;20051;-92
2022/03/05 01:41:13;;;;;;;10.80;5.38;;;-0.80;99.90;;;;;;5026380;28;20131;-93
2022/03/05 01:43:39;;;;;;;11.60;5.65;;;-0.80;99.90;;;;;;5026674;28;20139;-94
2022/03/05 01:46:05;;;;;;;11.50;4.95;;;-0.90;99.90;;;;;;5023263;28;20083;-92
2022/03/05 01:48:31;;;;;;;13.07;5.82;;;-0.90;99.90;;;;;;5050458;28;20036;-94
2022/03/05 01:50:57;;;;;;;9.73;5.00;;;-0.90;99.90;;;;;;5049514;28;20070;-93
2022/03/05 01:53:22;;;;;;;9.32;5.10;;;-1.00;99.90;;;;;;5017234;28;20044;-95
2022/03/05 01:55:48;;;;;;;11.52;4.90;;;-1.00;99.90;;;;;;5017289;28;20044;-94
2022/03/05 01:58:15;;;;;;;11.25;5.47;;;-1.00;99.90;;;;;;5033731;28;20416;-94
2022/03/05 02:00:41;;;;;;;10.65;5.53;;;-1.10;99.90;;;;;;5050571;28;20048;-94
2022/03/05 02:03:06;;;;;;;11.90;5.10;;;-0.10;99.90;;;;;;5033101;28;20050;-93
2022/03/05 02:05:32;;;;;;;9.85;5.43;;;-1.20;99.90;;;;;;5033604;28;20100;-94
2022/03/05 02:07:58;;;;;;;10.77;4.97;;;0.10;99.90;;;;;;5017899;28;20131;-94
2022/03/05 02:10:24;;;;;;;9.90;4.88;;;-1.10;99.90;;;;;;5017914;28;20415;-94
2022/03/05 02:12:52;;;;;;;8.13;4.82;;;-1.20;99.90;;;;;;5018149;28;20047;-94
2022/03/05 02:15:18;;;;;;;7.07;4.38;;;-1.20;99.90;;;;;;5063198;28;20033;-94
2022/03/05 02:17:43;;;;;;;12.05;5.30;;;-1.30;99.90;;;;;;5049128;28;20657;-94
2022/03/05 02:20:09;;;;;;;9.68;5.20;;;-1.20;99.90;;;;;;5036994;28;20407;-94
2022/03/05 02:22:36;;;;;;;8.65;4.97;;;-1.20;99.90;;;;;;5032716;28;20127;-94
2022/03/05 02:25:03;;;;;;;12.93;5.88;;;-1.40;99.90;;;;;;5032041;28;20105;-93
2022/03/05 02:27:30;;;;;;;10.27;6.25;;;-1.20;99.90;;;;;;5032541;28;20048;-91
2022/03/05 02:29:56;;;;;;;9.98;5.60;;;-1.40;99.90;;;;;;5049434;28;20437;-92
2022/03/05 02:32:23;;;;;;;9.23;5.28;;;-1.40;99.90;;;;;;5048659;28;20047;-95
2022/03/05 02:34:51;;;;;;;10.00;5.63;;;-1.20;99.90;;;;;;5052259;28;20066;-93
2022/03/05 02:37:20;;;;;;;8.38;4.78;;;-1.20;99.90;;;;;;5057096;28;20037;-92
2022/03/05 02:39:47;;;;;;;10.52;5.63;;;-1.20;99.90;;;;;;5019776;28;20045;-92
2022/03/05 02:42:15;;;;;;;11.00;5.82;;;0.20;99.90;;;;;;5048437;28;20827;-93
2022/03/05 02:44:41;;;;;;;11.43;6.10;;;-1.30;99.90;;;;;;5048873;28;20044;-94
2022/03/05 02:47:07;;;;;;;10.95;5.20;;;-1.20;99.90;;;;;;5048920;28;20044;-94
2022/03/05 02:49:32;;;;;;;7.90;4.93;;;-1.20;99.90;;;;;;5031951;28;20043;-94
2022/03/05 02:51:58;;;;;;;10.57;5.13;;;-1.20;99.90;;;;;;5016305;28;20046;-94
2022/03/05 02:54:24;;;;;;;12.38;5.97;;;-1.20;99.90;;;;;;5032067;28;20036;-95
2022/03/05 02:56:50;;;;;;;8.82;5.57;;;0.30;99.90;;;;;;5048642;28;20048;-93
2022/03/05 02:59:16;;;;;;;11.30;5.22;;;-1.10;99.90;;;;;;5032130;28;20131;-94
2022/03/05 03:01:42;;;;;;;12.18;5.13;;;-1.10;99.90;;;;;;5031600;28;20080;-94
2022/03/05 03:04:07;;;;;;;12.30;5.60;;;-1.10;99.90;;;;;;5031839;28;20113;-94
2022/03/05 03:06:33;;;;;;;9.27;5.05;;;-1.30;99.90;;;;;;5014177;28;20044;-95
2022/03/05 03:08:59;;;;;;;11.07;5.38;;;0.30;99.90;;;;;;5032266;28;20040;-95
2022/03/05 03:11:25;;;;;;;10.63;5.55;;;-1.30;99.90;;;;;;5048102;28;20400;-92
2022/03/05 03:13:51;;;;;;;10.63;6.25;;;-1.20;99.90;;;;;;5014652;28;20041;-93
2022/03/05 03:16:16;;;;;;;8.02;4.88;;;-1.20;99.90;;;;;;5014283;28;20071;-94
2022/03/05 03:18:43;;;;;;;7.93;4.28;;;-1.50;99.90;;;;;;5047412;28;20064;-92
2022/03/05 03:21:09;;;;;;;7.88;4.90;;;-1.30;99.90;;;;;;5047751;28;20044;-94
2022/03/05 03:23:35;;;;;;;7.70;4.88;;;-1.20;99.90;;;;;;5046990;28;20131;-93
2022/03/05 03:26:00;;;;;;;10.20;5.47;;;-0.70;99.90;;;;;;5031550;28;20055;-93
2022/03/05 03:28:26;;;;;;;8.15;5.68;;;-1.20;99.90;;;;;;5030895;28;20036;-94
2022/03/05 03:30:52;;;;;;;10.77;4.90;;;-1.30;99.90;;;;;;5014686;28;20074;-93
2022/03/05 03:33:18;;;;;;;13.05;5.03;;;0.00;99.90;;;;;;5014423;28;20052;-94
2022/03/05 03:35:43;;;;;;;9.88;5.55;;;-1.30;99.90;;;;;;5015061;28;20237;-93
2022/03/05 03:38:09;;;;;;;7.13;4.47;;;-0.20;99.90;;;;;;5047682;28;20090;-92
2022/03/05 03:40:36;;;;;;;8.77;4.75;;;-1.40;99.90;;;;;;5014209;28;20102;-93
2022/03/05 03:43:02;;;;;;;9.55;4.88;;;-1.50;99.90;;;;;;5031408;28;20048;-95
2022/03/05 03:45:27;;;;;;;8.73;5.40;;;-1.30;99.90;;;;;;5049222;28;20109;-94
2022/03/05 03:47:54;;;;;;;8.98;4.88;;;-0.50;99.90;;;;;;5035802;28;20048;-94
2022/03/05 03:50:22;;;;;;;9.98;4.93;;;-1.50;99.90;;;;;;5053532;28;20041;-94
2022/03/05 03:52:48;;;;;;;9.27;5.05;;;-1.40;99.90;;;;;;5037160;28;20041;-94
2022/03/05 03:55:17;;;;;;;8.65;4.82;;;-0.10;99.90;;;;;;5020748;28;20061;-93
2022/03/05 03:57:43;;;;;;;9.25;4.20;;;-1.40;99.90;;;;;;5055123;28;20047;-93
2022/03/05 04:00:12;;;;;;;8.10;4.85;;;-1.40;99.90;;;;;;5055771;28;20474;-93
2022/03/05 04:02:38;;;;;;;8.07;3.88;;;-1.40;99.90;;;;;;5055280;28;20044;-94
2022/03/05 04:05:04;;;;;;;10.05;4.53;;;-0.40;99.90;;;;;;5022575;28;20048;-95
2022/03/05 04:10:22;;;;;;;8.63;4.28;;;-1.40;99.90;;;;;;5070046;28;20056;-91
2022/03/05 04:12:48;;;;;;;8.65;4.72;;;-1.40;99.90;;;;;;5052108;28;20044;-95
2022/03/05 04:15:14;;;;;;;6.90;4.43;;;-1.50;99.90;;;;;;5067215;28;20044;-92
2022/03/05 04:17:40;;;;;;;9.38;5.10;;;-1.40;99.90;;;;;;5067143;28;20040;-93
2022/03/05 04:20:10;;;;;;;8.60;4.70;;;-1.40;99.90;;;;;;5050119;28;20046;-94
2022/03/05 04:22:36;;;;;;;10.18;4.50;;;-1.40;99.90;;;;;;5054144;28;20518;-93
2022/03/05 04:25:09;;;;;;;8.55;4.57;;;-1.40;99.90;;;;;;5054429;28;20105;-94
2022/03/05 04:27:43;;;;;;;8.00;4.53;;;-1.30;99.90;;;;;;5038938;28;20070;-94
2022/03/05 04:30:10;;;;;;;6.97;4.22;;;-1.40;99.90;;;;;;5037337;28;20131;-94
2022/03/05 04:32:38;;;;;;;11.00;4.53;;;-1.40;99.90;;;;;;5051890;28;20127;-95
2022/03/05 04:35:05;;;;;;;9.30;3.63;;;-0.10;99.90;;;;;;5052391;28;20052;-94
2022/03/05 04:37:31;;;;;;;7.18;3.90;;;-1.30;99.90;;;;;;5052545;28;20041;-92
2022/03/05 04:39:56;;;;;;;8.10;4.53;;;-1.40;99.90;;;;;;5035022;28;20064;-94
2022/03/05 04:42:22;;;;;;;7.53;3.42;;;-1.40;99.90;;;;;;5067191;28;20028;-94
2022/03/05 04:44:48;;;;;;;10.00;4.00;;;-0.10;99.90;;;;;;5069975;28;20044;-93
2022/03/05 04:47:14;;;;;;;8.60;4.70;;;-1.40;99.90;;;;;;5042898;28;20121;-96
2022/03/05 04:49:41;;;;;;;8.23;3.80;;;-1.40;99.90;;;;;;5017062;28;20131;-95
2022/03/05 04:52:06;;;;;;;7.30;3.85;;;-1.50;99.90;;;;;;5034459;28;20086;-94
2022/03/05 04:54:33;;;;;;;9.15;4.18;;;-1.40;99.90;;;;;;5017322;28;20504;-93
2022/03/05 04:56:59;;;;;;;7.88;4.03;;;-1.40;99.90;;;;;;5033422;28;20109;-95
2022/03/05 04:59:25;;;;;;;7.95;3.40;;;-1.40;99.90;;;;;;5051000;28;20448;-93
2022/03/05 05:01:52;;;;;;;4.93;3.53;;;-0.60;99.90;;;;;;5050093;28;20041;-94
2022/03/05 05:04:18;;;;;;;12.10;3.60;;;-0.10;99.90;;;;;;5034549;28;20079;-93
2022/03/05 05:06:44;;;;;;;7.03;3.50;;;-1.40;99.90;;;;;;5032899;28;20037;-94
2022/03/05 05:09:10;;;;;;;8.65;3.50;;;-1.50;99.90;;;;;;5035577;28;20036;-93
2022/03/05 05:11:36;;;;;;;8.77;4.10;;;-1.40;99.90;;;;;;5034030;28;20499;-93
2022/03/05 05:14:02;;;;;;;8.10;4.20;;;-1.40;99.90;;;;;;5033455;28;20141;-93
2022/03/05 05:16:28;;;;;;;9.32;4.22;;;-1.40;99.90;;;;;;5034361;28;20052;-93
2022/03/05 05:21:38;;;;;;;8.88;3.58;;;-1.40;99.90;;;;;;5039377;28;20041;-93
2022/03/05 05:24:04;;;;;;;7.47;4.60;;;-1.30;99.90;;;;;;5016804;28;20056;-92
2022/03/05 05:26:30;;;;;;;8.18;4.22;;;-1.40;99.90;;;;;;5034451;28;20139;-93
2022/03/05 05:28:56;;;;;;;8.25;3.95;;;-1.40;99.90;;;;;;5050454;28;20127;-93
2022/03/05 05:31:21;;;;;;;9.73;3.95;;;-1.40;99.90;;;;;;5017279;28;20094;-92
2022/03/05 05:33:50;;;;;;;8.02;3.90;;;-1.40;99.90;;;;;;5017192;28;20045;-93
2022/03/05 05:36:16;;;;;;;8.80;3.75;;;-0.10;99.90;;;;;;5049466;28;20436;-92
2022/03/05 05:38:42;;;;;;;7.80;3.92;;;-1.40;99.90;;;;;;5067499;28;20055;-93
2022/03/05 05:41:12;;;;;;;7.90;3.47;;;-1.40;99.90;;;;;;5032552;28;20045;-93
2022/03/05 05:43:38;;;;;;;6.35;3.53;;;-0.90;99.90;;;;;;5051641;28;20445;-93
2022/03/05 05:46:07;;;;;;;9.20;3.45;;;-0.20;99.90;;;;;;5067248;28;20036;-93
2022/03/05 05:48:33;;;;;;;7.20;3.78;;;-0.10;99.90;;;;;;5033002;28;20075;-94
2022/03/05 05:50:59;;;;;;;6.93;4.15;;;-1.50;99.90;;;;;;5018726;28;20048;-92
2022/03/05 05:53:27;;;;;;;7.05;4.47;;;-1.40;99.90;;;;;;5038763;28;20048;-92
2022/03/05 05:55:53;;;;;;;5.97;4.20;;;-1.40;99.90;;;;;;5023135;28;20561;-94
2022/03/05 05:58:20;;;;;;;10.60;4.60;;;-1.50;99.90;;;;;;5032725;28;20045;-94
2022/03/05 06:00:46;;;;;;;10.60;4.35;;;-1.40;99.90;;;;;;5050539;28;20040;-91
2022/03/05 06:03:12;;;;;;;10.18;4.40;;;-1.40;99.90;;;;;;5032703;28;20048;-91
2022/03/05 06:05:38;;;;;;;7.95;3.85;;;-1.40;99.90;;;;;;5016506;28;20444;-91
2022/03/05 06:08:04;;;;;;;9.50;4.15;;;-1.50;99.90;;;;;;5016890;28;20091;-92
2022/03/05 06:10:30;;;;;;;6.53;4.25;;;-1.50;99.90;;;;;;5048087;28;20083;-93
2022/03/05 06:12:56;;;;;;;8.25;4.25;;;-1.50;99.90;;;;;;5034388;28;20045;-93
2022/03/05 06:15:22;;;;;;;7.18;4.35;;;-1.50;99.90;;;;;;5032263;28;20086;-94
2022/03/05 06:17:48;;;;;;;8.45;4.53;;;-1.50;99.90;;;;;;5018038;28;20131;-92
2022/03/05 06:20:14;;;;;;;5.95;3.40;;;-1.50;99.90;;;;;;5033356;28;20087;-94
2022/03/05 06:22:40;;;;;;;7.25;3.97;;;-1.50;99.90;;;;;;5033676;28;20107;-93
2022/03/05 06:25:07;;;;;;;8.35;4.47;;;-1.50;99.90;;;;;;5034023;28;20040;-93
2022/03/05 06:27:33;;;;;;;11.77;4.78;;;-1.50;99.90;;;;;;5016505;28;20055;-93
2022/03/05 06:29:59;;;;;;;7.63;4.45;;;-1.50;99.90;;;;;;5017969;28;20049;-93
2022/03/05 06:32:24;;;;;;;8.75;4.28;;;-1.50;99.90;;;;;;5049657;28;20048;-93
2022/03/05 06:34:54;;;;;;;9.90;5.03;;;-1.50;99.90;;;;;;5019107;28;20047;-92
2022/03/05 06:37:20;;;;;;;7.32;3.92;;;-1.50;99.90;;;;;;5018333;28;20037;-93
2022/03/05 06:39:46;;;;;;;9.93;4.28;;;-1.50;99.90;;;;;;5018573;28;20036;-93
2022/03/05 06:42:12;;;;;;;10.80;4.95;;;-0.50;99.90;;;;;;5035893;28;20055;-94
2022/03/05 06:44:37;;;;;;;8.68;4.43;;;-1.50;99.90;;;;;;5039098;28;20049;-92
2022/03/05 06:47:04;;;;;;;7.78;4.45;;;-1.50;99.90;;;;;;5027648;28;20090;-92
2022/03/05 06:49:29;;;;;;;8.50;4.68;;;-1.40;99.90;;;;;;5043355;28;20388;-93
2022/03/05 06:51:56;;;;;;;8.65;4.68;;;-1.40;99.90;;;;;;5029612;28;20041;-93
2022/03/05 06:54:21;;;;;;;12.70;5.45;;;0.10;99.90;;;;;;5030874;28;20072;-92
2022/03/05 06:56:47;;;;;;;8.57;4.97;;;-1.40;99.90;;;;;;5037398;28;20047;-94
2022/03/05 06:59:13;;;;;;;9.73;4.88;;;-1.30;99.90;;;;;;5032781;28;20450;-90
2022/03/05 07:01:39;;;;;;;7.93;4.32;;;-1.30;99.90;;;;;;5032542;28;20044;-91
2022/03/05 07:04:04;;;;;;;9.35;5.05;;;-0.10;99.90;;;;;;5050958;28;20048;-93
2022/03/05 07:06:30;;;;;;;13.00;5.25;;;-0.40;99.90;;;;;;5014682;28;20043;-88
2022/03/05 07:08:57;;;;;;;8.95;5.00;;;-1.10;99.90;;;;;;5072421;28;20040;-89
2022/03/05 07:11:23;;;;;;;9.15;5.20;;;-1.90;99.90;;;;;;5062803;28;20036;-88
2022/03/05 07:13:48;;;;;;;7.80;4.72;;;-1.00;99.90;;;;;;5052186;28;20041;-88
2022/03/05 07:16:14;;;;;;;7.90;4.72;;;-0.90;99.90;;;;;;5056193;28;20041;-91
2022/03/05 07:18:40;;;;;;;8.60;4.93;;;-0.90;99.90;;;;;;5029701;28;20079;-87
2022/03/05 07:21:06;;;;;;;11.52;5.68;;;-0.80;99.90;;;;;;5012990;28;20047;-88
2022/03/05 07:23:32;;;;;;;9.57;4.47;;;-0.70;99.90;;;;;;5012288;28;20044;-90
2022/03/05 07:25:58;;;;;;;9.30;4.85;;;-0.70;99.90;;;;;;5030160;28;20381;-88
2022/03/05 07:28:24;;;;;;;8.90;4.63;;;1.00;99.90;;;;;;5029809;28;20584;-89
2022/03/05 07:30:51;;;;;;;7.05;4.65;;;-0.40;99.90;;;;;;5014055;28;20496;-89
2022/03/05 07:33:16;;;;;;;11.23;5.65;;;-0.50;99.90;;;;;;5030006;28;20508;-88
2022/03/05 07:35:42;;;;;;;8.80;4.97;;;-0.40;99.90;;;;;;5063690;28;20056;-88
2022/03/05 07:38:08;;;;;;;9.38;5.65;;;-0.20;99.90;;;;;;5030348;28;20040;-86
2022/03/05 07:40:34;;;;;;;8.98;4.78;;;0.40;99.90;;;;;;5062984;28;20056;-87
2022/03/05 07:42:59;;;;;;;11.27;5.13;;;1.40;99.90;;;;;;5014224;28;20047;-87
2022/03/05 07:45:25;;;;;;;10.43;5.47;;;1.50;99.90;;;;;;5045554;28;20084;-84
2022/03/05 07:47:51;;;;;;;10.25;5.90;;;0.20;99.90;;;;;;5065022;28;20496;-87
2022/03/05 07:50:17;;;;;;;11.43;6.18;;;0.90;99.90;;;;;;5013035;28;20102;-86
2022/03/05 07:52:42;;;;;;;12.40;5.18;;;0.40;99.90;;;;;;5028835;28;20055;-85
2022/03/05 07:55:09;;;;;;;7.70;4.63;;;0.50;99.90;;;;;;5046702;28;20044;-85
2022/03/05 07:57:35;;;;;;;9.85;4.82;;;0.60;99.90;;;;;;5062150;28;20759;-84
2022/03/05 08:00:02;;;;;;;10.90;5.00;;;1.80;99.90;;;;;;5047208;28;20531;-84
2022/03/05 08:02:28;;;;;;;8.93;5.22;;;1.90;99.90;;;;;;5028479;28;20049;-84
2022/03/05 08:04:53;;;;;;;8.30;5.13;;;2.20;99.90;;;;;;5046626;28;20533;-84
2022/03/05 08:07:19;;;;;;;10.77;5.00;;;1.00;99.90;;;;;;5029033;28;20037;-85
2022/03/05 08:09:45;;;;;;;12.43;4.30;;;2.30;99.90;;;;;;5062539;28;20037;-85
2022/03/05 08:12:11;;;;;;;10.18;4.95;;;1.20;99.90;;;;;;5063170;28;20254;-84
2022/03/05 08:14:37;;;;;;;7.82;5.07;;;2.10;99.90;;;;;;5046029;28;20128;-83
2022/03/05 08:17:04;;;;;;;13.40;5.00;;;1.90;99.90;;;;;;5063480;28;20040;-86
2022/03/05 08:19:30;;;;;;;10.23;5.35;;;1.60;99.90;;;;;;5044600;28;20052;-83
2022/03/05 08:21:56;;;;;;;11.57;5.00;;;1.90;99.90;;;;;;5063871;28;20106;-83
2022/03/05 08:24:21;;;;;;;9.25;5.30;;;2.20;99.90;;;;;;5063239;28;20067;-81
2022/03/05 08:26:47;;;;;;;9.00;5.25;;;3.40;99.90;;;;;;5063382;28;20045;-81
2022/03/05 08:29:13;;;;;;;8.70;5.10;;;2.70;99.90;;;;;;5046874;28;20064;-85
2022/03/05 08:31:39;;;;;;;8.30;4.97;;;2.80;99.90;;;;;;5046643;28;20044;-85
2022/03/05 08:34:06;;;;;;;7.82;4.53;;;3.00;99.90;;;;;;5050453;28;20044;-84
2022/03/05 08:36:34;;;;;;;10.45;5.60;;;3.10;99.90;;;;;;5048065;28;20076;-85
2022/03/05 08:39:00;;;;;;;7.30;4.93;;;4.40;99.90;;;;;;5033879;28;20040;-85
2022/03/05 08:41:26;;;;;;;13.55;5.00;;;3.10;99.90;;;;;;5065035;28;20063;-81
2022/03/05 08:43:52;;;;;;;9.07;4.93;;;3.10;99.90;;;;;;5067111;28;20048;-81
2022/03/05 08:46:18;;;;;;;9.27;4.93;;;4.20;99.90;;;;;;5067367;28;20166;-83
2022/03/05 08:48:44;;;;;;;9.98;5.68;;;3.20;99.90;;;;;;5048293;28;20414;-82
2022/03/05 08:51:10;;;;;;;10.02;5.40;;;3.30;99.90;;;;;;5033354;28;20123;-81
2022/03/05 08:53:36;;;;;;;13.32;6.18;;;4.40;99.90;;;;;;5065976;28;20415;-81
2022/03/05 08:56:02;;;;;;;13.60;5.57;;;3.50;99.90;;;;;;5067920;28;20156;-82
2022/03/05 08:58:27;;;;;;;11.00;4.82;;;3.50;99.90;;;;;;5066329;28;20210;-82
2022/03/05 09:00:53;;;;;;;12.60;5.30;;;3.50;99.90;;;;;;5066376;28;20036;-81
2022/03/05 09:03:19;;;;;;;9.80;5.30;;;3.60;99.90;;;;;;5016416;28;20457;-82
2022/03/05 09:05:46;;;;;;;10.00;5.85;;;3.70;99.90;;;;;;5048026;28;20032;-79
2022/03/05 09:08:13;;;;;;;14.07;5.20;;;3.80;99.90;;;;;;5066326;28;20044;-78
2022/03/05 09:10:39;;;;;;;11.68;5.85;;;3.80;99.90;;;;;;5065267;28;20044;-78
2022/03/05 09:13:05;;;;;;;10.45;5.28;;;3.90;99.90;;;;;;5066794;28;20488;-78
2022/03/05 09:15:30;;;;;;;13.90;5.63;;;4.10;99.90;;;;;;5064863;28;20073;-77
2022/03/05 09:17:56;;;;;;;10.30;6.00;;;5.20;99.90;;;;;;5066196;28;20488;-77
2022/03/05 09:20:22;;;;;;;13.48;5.82;;;4.10;99.90;;;;;;5066062;28;20587;-77
2022/03/05 09:22:48;;;;;;;8.85;5.40;;;4.20;99.90;;;;;;5066620;28;20048;-79
2022/03/05 09:25:14;;;;;;;10.25;5.97;;;4.30;99.90;;;;;;5066011;28;20128;-80
2022/03/05 09:27:40;;;;;;;10.52;5.57;;;4.40;99.90;;;;;;5031347;28;20079;-77
2022/03/05 09:30:07;;;;;;;10.30;5.43;;;4.50;99.90;;;;;;5032873;28;20115;-78
2022/03/05 09:32:33;;;;;;;10.15;5.95;;;4.50;99.90;;;;;;5065587;28;20083;-78
2022/03/05 09:34:59;;;;;;;11.10;6.10;;;4.50;99.90;;;;;;5067345;28;20045;-80
2022/03/05 09:37:28;;;;;;;11.40;5.78;;;4.60;99.90;;;;;;5049392;28;20106;-79
2022/03/05 09:39:54;;;;;;;10.05;6.00;;;4.60;99.90;;;;;;5048486;28;20504;-78
2022/03/05 09:42:20;;;;;;;11.75;6.53;;;4.70;99.90;;;;;;5066554;28;20056;-79
2022/03/05 09:44:46;;;;;;;9.63;5.53;;;4.80;99.90;;;;;;5064043;28;20488;-80
2022/03/05 09:47:12;;;;;;;10.10;6.10;;;4.80;99.90;;;;;;5065785;28;20045;-84
2022/03/05 09:49:38;;;;;;;10.77;5.25;;;4.90;99.90;;;;;;5064548;28;20427;-80
2022/03/05 09:52:09;;;;;;;9.90;5.75;;;5.00;99.90;;;;;;5065357;28;20075;-81
2022/03/05 09:54:36;;;;;;;12.05;6.50;;;5.10;99.90;;;;;;5067067;28;20045;-80
2022/03/05 09:57:09;;;;;;;9.88;5.97;;;5.20;99.90;;;;;;5064529;28;20526;-80
2022/03/05 09:59:34;;;;;;;12.75;6.13;;;5.30;99.90;;;;;;5065744;28;20040;-79
2022/03/05 10:02:00;;;;;;;10.80;5.45;;;5.40;99.90;;;;;;5047156;28;20071;-80
2022/03/05 10:04:26;;;;;;;8.55;4.53;;;5.50;99.90;;;;;;5065866;28;20131;-79
2022/03/05 10:07:08;;;;;;;10.18;5.47;;;5.60;99.90;;;;;;5047348;28;20136;-79
2022/03/05 10:09:34;;;;;;;12.23;6.05;;;5.70;99.90;;;;;;5064164;28;20484;-78
2022/03/05 10:12:00;;;;;;;11.93;6.68;;;5.80;99.90;;;;;;5048563;28;20041;-78
2022/03/05 10:14:26;;;;;;;12.43;6.75;;;5.90;99.90;;;;;;5063854;28;20381;-79
2022/03/05 10:17:04;;;;;;;12.43;6.03;;;6.00;99.90;;;;;;5032676;28;20424;-79
2022/03/05 10:19:29;;;;;;;12.38;6.38;;;6.00;99.90;;;;;;5063467;28;20476;-80
2022/03/05 10:22:03;;;;;;;15.30;6.28;;;7.00;99.90;;;;;;5066096;28;20060;-79
2022/03/05 10:24:39;;;;;;;11.68;6.15;;;6.00;99.90;;;;;;5066593;28;20444;-80
2022/03/05 10:27:09;;;;;;;11.55;6.35;;;6.00;99.90;;;;;;5065165;28;20048;-78
2022/03/05 10:29:39;;;;;;;11.70;6.18;;;6.00;99.90;;;;;;5064851;28;20044;-78
2022/03/05 10:32:08;;;;;;;9.98;5.82;;;7.20;99.90;;;;;;5063884;28;20040;-78
2022/03/05 10:34:50;;;;;;;11.15;6.90;;;6.00;99.90;;;;;;5048130;28;20056;-78
2022/03/05 10:37:20;;;;;;;13.68;6.68;;;6.30;95.20;;;;;;5064428;28;20048;-79
2022/03/05 10:39:48;;;;;;;11.63;5.90;;;6.20;99.90;;;;;;5063356;28;20045;-78
2022/03/05 10:42:26;;;;;;;13.63;6.93;;;6.20;99.90;;;;;;5064830;28;20059;-78
2022/03/05 10:45:07;;;;;;;13.38;6.30;;;7.00;99.20;;;;;;5064815;28;20044;-78
2022/03/05 10:47:41;;;;;;;17.08;6.80;;;6.30;94.40;;;;;;5064070;28;20052;-78
2022/03/05 10:50:20;;;;;;;12.52;6.78;;;6.40;97.70;;;;;;5064073;28;20048;-78
2022/03/05 10:52:51;;;;;;;13.48;5.88;;;6.40;99.00;;;;;;5063387;28;20048;-82
2022/03/05 10:55:19;;;;;;;13.45;6.57;;;6.50;99.90;;;;;;5063611;28;20048;-79
2022/03/05 10:58:17;;;;;;;10.65;6.18;;;6.60;99.70;;;;;;5046919;28;20853;-81
2022/03/05 11:00:45;;;;;;;11.70;6.53;;;6.60;95.00;;;;;;5064621;28;20060;-80
2022/03/05 11:03:11;;;;;;;9.68;6.00;;;6.70;98.10;;;;;;5064296;28;20055;-80
2022/03/05 11:05:38;;;;;;;12.35;6.50;;;6.70;97.00;;;;;;5064560;28;20106;-81
2022/03/05 11:08:06;;;;;;;13.57;5.72;;;6.70;96.90;;;;;;5065959;28;20077;-80
2022/03/05 11:10:32;;;;;;;11.57;5.65;;;6.80;97.10;;;;;;5064162;28;20403;-80
2022/03/05 11:13:02;;;;;;;11.90;5.80;;;6.90;97.70;;;;;;5064213;28;20044;-80
2022/03/05 11:15:29;;;;;;;12.98;6.20;;;7.00;96.00;;;;;;5064059;28;20399;-79
2022/03/05 11:17:57;;;;;;;9.73;5.75;;;7.70;95.30;;;;;;5046730;28;20063;-79
2022/03/05 11:20:24;;;;;;;12.50;6.22;;;7.40;93.80;;;;;;5063467;28;20044;-82
2022/03/05 11:22:50;;;;;;;14.55;6.80;;;7.10;93.90;;;;;;5046208;28;20400;-82
2022/03/05 11:25:19;;;;;;;14.10;6.65;;;7.20;94.70;;;;;;5063190;28;20484;-81
2022/03/05 11:28:00;;;;;;;15.23;7.22;;;7.20;91.50;;;;;;5063450;28;20456;-81
2022/03/05 11:30:27;;;;;;;10.93;6.32;;;7.20;83.50;;;;;;5063157;28;20128;-82
2022/03/05 11:32:53;;;;;;;10.45;6.30;;;8.50;91.70;;;;;;5063688;28;20769;-82
2022/03/05 11:35:20;;;;;;;12.52;6.35;;;7.30;92.10;;;;;;5062554;28;20036;-81
2022/03/05 11:37:47;;;;;;;12.30;6.95;;;7.00;91.20;;;;;;5063377;28;20571;-78
2022/03/05 11:40:38;;;;;;;11.57;6.07;;;8.00;90.40;;;;;;5063184;28;20057;-80
2022/03/05 11:43:21;;;;;;;14.23;6.78;;;7.50;78.60;;;;;;5046642;28;20087;-80
2022/03/05 11:46:04;;;;;;;14.32;6.60;;;7.60;86.10;;;;;;5063984;28;20082;-82
2022/03/05 11:48:32;;;;;;;15.63;6.95;;;7.60;90.00;;;;;;5062494;28;20396;-81
2022/03/05 11:51:01;;;;;;;16.33;7.15;;;7.80;89.30;;;;;;5064176;28;20041;-81
2022/03/05 11:53:27;;;;;;;14.30;7.03;;;7.90;89.60;;;;;;5061878;28;20561;-81
2022/03/05 11:55:54;;;;;;;11.85;6.55;;;8.00;89.90;;;;;;5047090;28;20133;-81
2022/03/05 11:58:26;;;;;;;11.35;6.32;;;8.10;88.20;;;;;;5063412;28;20040;-82
2022/03/05 12:00:54;;;;;;;11.05;5.88;;;9.20;81.90;;;;;;5046306;28;20036;-80
2022/03/05 12:03:38;;;;;;;13.20;6.93;;;8.00;85.50;;;;;;5064337;28;20044;-81
2022/03/05 12:06:05;;;;;;;11.27;6.28;;;8.10;84.70;;;;;;5066321;28;20103;-80
2022/03/05 12:08:31;;;;;;;10.90;5.63;;;8.30;85.70;;;;;;5056388;28;20045;-85
2022/03/05 12:11:14;;;;;;;13.75;6.97;;;8.40;86.00;;;;;;5067276;28;20037;-82
2022/03/05 12:13:47;;;;;;;12.00;6.10;;;8.40;81.10;;;;;;5049420;28;20052;-80
2022/03/05 12:16:25;;;;;;;10.05;5.43;;;8.50;83.50;;;;;;5050942;28;20047;-80
2022/03/05 12:18:52;;;;;;;12.13;6.15;;;8.40;76.70;;;;;;5065452;28;20097;-83
2022/03/05 12:21:25;;;;;;;11.73;6.05;;;8.50;82.80;;;;;;5051177;28;20040;-80
2022/03/05 12:23:56;;;;;;;;;;;8.50;77.10;;;;;;5050519;28;20037;-80
2022/03/05 12:26:29;;;;;;;10.27;6.57;;;9.20;70.00;;;;;;5050022;28;19921;-82
2022/03/05 12:28:55;;;;;;;9.77;5.88;;;8.60;81.10;;;;;;5066927;28;20541;-81
2022/03/05 12:31:20;;;;;;;12.32;6.28;;;8.70;79.60;;;;;;5049285;28;20052;-80
2022/03/05 12:33:48;;;;;;;9.00;5.63;;;8.90;78.70;;;;;;5050329;28;20417;-83
2022/03/05 12:36:17;;;;;;;9.15;6.18;;;8.80;76.60;;;;;;5065358;28;20044;-81
2022/03/05 12:38:52;;;;;;;11.40;6.20;;;8.70;77.50;;;;;;5050189;28;20087;-80
2022/03/05 12:41:18;;;;;;;12.98;6.88;;;8.80;77.90;;;;;;5050059;28;20127;-80
2022/03/05 12:43:44;;;;;;;11.88;6.57;;;8.80;77.30;;;;;;5066170;28;20051;-80
2022/03/05 12:46:11;;;;;;;14.23;7.50;;;8.90;76.40;;;;;;5050887;28;20044;-79
2022/03/05 12:48:36;;;;;;;15.10;8.25;;;9.70;76.60;;;;;;5065455;28;20048;-82
2022/03/05 12:51:02;;;;;;;13.38;7.57;;;9.10;76.90;;;;;;5067433;28;20044;-78
2022/03/05 12:53:31;;;;;;;12.20;6.32;;;9.10;75.00;;;;;;5066010;28;20048;-77